Time;durP1;ratioP1;P1;durP2;ratioP2;P2;SDS_P1;SDS_P2;PMS_P1;PMS_P2;Temp;Humidity;BMP_temperature;BMP_pressure;BME280_temperature;BME280_humidity;BME280_pressure;Samples;Min_cycle;Max_cycle;Signal;HPM_P1;HPM_P2
2023/07/22 00:00:09;;;;;;;;;;;21.70;90.20;21.70;99542.00;;;;336051;28;91404;-87
2023/07/22 00:00:22;;;;;;;;;;;21.80;90.20;21.80;99529.00;;;;343426;28;82536;-88
2023/07/22 00:00:34;;;;;;;;;;;21.80;90.20;21.90;99539.00;;;;339944;28;91548;-88
2023/07/22 00:00:46;;;;;;;;;;;21.80;90.20;22.00;99533.00;;;;339257;28;83363;-88
2023/07/22 00:00:58;;;;;;;;;;;21.80;90.20;22.00;99535.00;;;;341504;28;90343;-87
2023/07/22 00:01:10;;;;;;;;;;;21.80;90.20;22.00;99542.00;;;;339071;28;82379;-87
2023/07/22 00:01:22;;;;;;;;;;;21.80;90.40;22.00;99539.00;;;;337418;28;91680;-87
2023/07/22 00:01:34;;;;;;;;;;;21.80;90.20;22.00;99539.00;;;;339154;28;83533;-87
2023/07/22 00:01:46;;;;;;;;;;;21.80;90.10;22.00;99540.00;;;;337389;28;91406;-88
2023/07/22 00:01:58;;;;;;;;;;;21.80;90.10;22.00;99538.00;;;;344760;28;82542;-87
2023/07/22 00:02:09;;;;;;;;;;;21.80;90.10;21.90;99540.00;;;;337432;28;90209;-87
2023/07/22 00:02:22;;;;;;;;;;;21.80;90.20;21.80;99539.00;;;;346153;28;83431;-88
2023/07/22 00:02:34;;;;;;;;;;;21.80;90.20;21.80;99536.00;;;;337346;28;91551;-88
2023/07/22 00:02:46;;;;;;;;;;;21.80;90.20;21.70;99544.00;;;;337833;28;82488;-88
2023/07/22 00:02:58;;;;;;;;;;;21.70;90.20;21.60;99537.00;;;;338738;28;91611;-87
2023/07/22 00:03:10;;;;;;;;;;;21.70;90.30;21.60;99544.00;;;;337887;28;82520;-87
2023/07/22 00:03:23;;;;;;;;;;;21.70;90.30;21.50;99540.00;;;;338807;28;88833;-87
2023/07/22 00:03:35;;;;;;;;;;;21.70;90.30;21.60;99544.00;;;;341775;28;83473;-88
2023/07/22 00:03:47;;;;;;;;;;;21.70;90.30;21.70;99538.00;;;;343707;28;91009;-87
2023/07/22 00:03:58;;;;;;;;;;;21.70;90.30;21.60;99551.00;;;;347544;28;83460;-87
2023/07/22 00:04:10;;;;;;;;;;;21.70;90.30;21.70;99539.00;;;;338646;28;91269;-87
2023/07/22 00:04:22;;;;;;;;;;;21.70;90.30;21.70;99537.00;;;;336928;28;83218;-88
2023/07/22 00:04:34;;;;;;;;;;;21.70;90.40;21.70;99543.00;;;;339954;28;92246;-87
2023/07/22 00:04:46;;;;;;;;;;;21.70;90.40;21.70;99543.00;;;;340829;28;83461;-87
2023/07/22 00:04:58;;;;;;;;;;;21.70;90.30;21.70;99539.00;;;;337990;28;89770;-88
2023/07/22 00:05:12;;;;;;;;;;;21.60;90.30;21.60;99541.00;;;;339073;28;82580;-87
2023/07/22 00:05:25;;;;;;;;;;;21.70;90.40;21.60;99542.00;;;;340105;28;87668;-86
2023/07/22 00:05:37;;;;;;;;;;;21.70;90.50;21.80;99540.00;;;;339282;28;83301;-87
2023/07/22 00:05:48;;;;;;;;;;;21.60;90.40;21.80;99539.00;;;;339944;28;92168;-87
2023/07/22 00:06:05;;;;;;;;;;;21.70;90.40;21.70;99542.00;;;;339272;28;83159;-88
2023/07/22 00:06:17;;;;;;;;;;;21.70;90.50;21.80;99536.00;;;;344227;28;91333;-87
2023/07/22 00:06:30;;;;;;;;;;;21.60;90.40;21.60;99546.00;;;;346022;28;83545;-88
2023/07/22 00:06:41;;;;;;;;;;;21.60;90.40;21.60;99546.00;;;;340007;28;92224;-87
2023/07/22 00:06:53;;;;;;;;;;;21.60;90.50;21.60;99542.00;;;;338939;28;83398;-86
2023/07/22 00:07:05;;;;;;;;;;;21.60;90.50;21.50;99542.00;;;;338750;28;91364;-87
2023/07/22 00:07:17;;;;;;;;;;;21.60;90.50;21.60;99539.00;;;;338846;28;83371;-88
2023/07/22 00:07:29;;;;;;;;;;;21.60;90.50;21.70;99537.00;;;;338764;28;90197;-87
2023/07/22 00:07:40;;;;;;;;;;;21.60;90.50;21.80;99536.00;;;;337903;28;83910;-86
2023/07/22 00:07:52;;;;;;;;;;;21.60;90.50;21.80;99538.00;;;;337396;28;90576;-87
2023/07/22 00:08:04;;;;;;;;;;;21.60;90.40;21.80;99542.00;;;;340496;28;83274;-87
2023/07/22 00:08:16;;;;;;;;;;;21.70;90.40;21.80;99542.00;;;;338693;28;91911;-87
2023/07/22 00:08:28;;;;;;;;;;;21.70;90.40;21.90;99546.00;;;;337797;28;83496;-87
2023/07/22 00:08:40;;;;;;;;;;;21.70;90.50;21.80;99539.00;;;;340001;28;91442;-88
2023/07/22 00:08:51;;;;;;;;;;;21.60;90.50;21.80;99539.00;;;;341939;28;82424;-88
2023/07/22 00:09:04;;;;;;;;;;;21.70;90.50;21.80;99538.00;;;;340051;28;91780;-87
2023/07/22 00:09:15;;;;;;;;;;;21.60;90.50;21.80;99540.00;;;;341760;28;83536;-87
2023/07/22 00:09:27;;;;;;;;;;;21.70;90.50;21.80;99541.00;;;;339917;28;91451;-87
2023/07/22 00:09:41;;;;;;;;;;;21.70;90.50;21.80;99541.00;;;;340531;28;82506;-87
2023/07/22 00:09:53;;;;;;;;;;;21.70;90.50;21.80;99537.00;;;;337348;28;91771;-87
2023/07/22 00:10:05;;;;;;;;;;;21.70;90.40;21.80;99537.00;;;;343470;28;83350;-87
2023/07/22 00:10:17;;;;;;;;;;;21.70;90.50;21.70;99542.00;;;;337266;28;92039;-88
2023/07/22 00:10:28;;;;;;;;;;;21.70;90.50;21.70;99549.00;;;;339140;28;83430;-87
2023/07/22 00:10:42;;;;;;;;;;;21.70;90.50;21.60;99544.00;;;;338727;28;91105;-87
2023/07/22 00:10:54;;;;;;;;;;;21.60;90.50;21.60;99543.00;;;;339286;28;83452;-87
2023/07/22 00:11:06;;;;;;;;;;;21.60;90.50;21.60;99546.00;;;;338719;28;91162;-87
2023/07/22 00:11:17;;;;;;;;;;;21.60;90.50;21.70;99543.00;;;;340486;28;83424;-87
2023/07/22 00:11:29;;;;;;;;;;;21.60;90.50;21.70;99542.00;;;;337506;28;90514;-88
2023/07/22 00:11:41;;;;;;;;;;;21.60;90.50;21.70;99537.00;;;;337843;28;82452;-87
2023/07/22 00:11:53;;;;;;;;;;;21.60;90.50;21.70;99545.00;;;;337302;28;89516;-88
2023/07/22 00:12:05;;;;;;;;;;;21.60;90.50;21.70;99540.00;;;;339193;28;82536;-87
2023/07/22 00:12:17;;;;;;;;;;;21.60;90.50;21.70;99539.00;;;;337389;28;89181;-87
2023/07/22 00:12:29;;;;;;;;;;;21.60;90.60;21.70;99545.00;;;;336460;28;83468;-87
2023/07/22 00:12:41;;;;;;;;;;;21.60;90.50;21.70;99541.00;;;;340110;28;91136;-87
2023/07/22 00:12:53;;;;;;;;;;;21.60;90.50;21.80;99539.00;;;;341948;28;83377;-87
2023/07/22 00:13:04;;;;;;;;;;;21.60;90.50;21.70;99541.00;;;;337434;28;91179;-87
2023/07/22 00:13:16;;;;;;;;;;;21.60;90.60;21.70;99541.00;;;;340446;28;82581;-87
2023/07/22 00:13:28;;;;;;;;;;;21.50;90.50;21.80;99535.00;;;;337455;28;91516;-87
2023/07/22 00:13:40;;;;;;;;;;;21.60;90.50;21.80;99539.00;;;;337805;28;83540;-87
2023/07/22 00:13:51;;;;;;;;;;;21.60;90.60;21.80;99535.00;;;;337385;28;92161;-88
2023/07/22 00:14:06;;;;;;;;;;;21.60;90.90;21.80;99531.00;;;;339175;28;83395;-87
2023/07/22 00:14:18;;;;;;;;;;;21.60;90.60;21.70;99530.00;;;;338815;28;88776;-87
2023/07/22 00:14:30;;;;;;;;;;;21.60;90.50;21.70;99529.00;;;;337820;28;83392;-88
2023/07/22 00:14:42;;;;;;;;;;;21.60;90.80;21.80;99533.00;;;;337162;28;89102;-87
2023/07/22 00:14:54;;;;;;;;;;;21.60;90.60;21.80;99528.00;;;;340555;28;83364;-87
2023/07/22 00:15:06;;;;;;;;;;;21.60;90.50;21.70;99529.00;;;;340079;28;88749;-87
2023/07/22 00:15:20;;;;;;;;;;;21.60;90.50;21.70;99531.00;;;;340435;28;83519;-87
2023/07/22 00:15:32;;;;;;;;;;;21.60;90.50;21.70;99533.00;;;;340125;28;91805;-87
2023/07/22 00:15:43;;;;;;;;;;;21.60;90.50;21.70;99545.00;;;;339079;28;83428;-88
2023/07/22 00:15:55;;;;;;;;;;;21.60;90.50;21.80;99529.00;;;;338795;28;90352;-88
2023/07/22 00:16:07;;;;;;;;;;;21.50;90.50;21.70;99534.00;;;;340500;28;83358;-87
2023/07/22 00:16:19;;;;;;;;;;;21.60;90.50;21.70;99532.00;;;;340088;28;88886;-88
2023/07/22 00:16:32;;;;;;;;;;;21.60;90.50;21.70;99534.00;;;;339202;28;84029;-87
2023/07/22 00:16:44;;;;;;;;;;;21.50;90.50;21.80;99530.00;;;;340371;28;91259;-87
2023/07/22 00:16:55;;;;;;;;;;;21.60;90.50;21.80;99540.00;;;;340454;28;82284;-87
2023/07/22 00:17:07;;;;;;;;;;;21.60;90.50;21.70;99541.00;;;;341370;28;91288;-87
2023/07/22 00:17:20;;;;;;;;;;;21.60;90.60;21.70;99536.00;;;;341894;28;82445;-87
2023/07/22 00:17:33;;;;;;;;;;;21.60;90.60;21.80;99536.00;;;;340169;28;90086;-87
2023/07/22 00:17:44;;;;;;;;;;;21.60;90.60;21.80;99538.00;;;;340508;28;82486;-87
2023/07/22 00:17:56;;;;;;;;;;;21.60;90.70;21.80;99530.00;;;;341402;28;91556;-87
2023/07/22 00:18:09;;;;;;;;;;;21.60;90.70;21.80;99531.00;;;;339156;28;82496;-87
2023/07/22 00:18:21;;;;;;;;;;;21.60;90.70;21.90;99530.00;;;;338691;28;90219;-87
2023/07/22 00:18:33;;;;;;;;;;;21.60;90.60;21.70;99533.00;;;;341783;28;82482;-87
2023/07/22 00:18:45;;;;;;;;;;;21.60;90.60;21.80;99531.00;;;;337907;28;91294;-87
2023/07/22 00:18:57;;;;;;;;;;;21.60;90.70;21.80;99531.00;;;;337841;28;83395;-88
2023/07/22 00:21:29;;;;;;;;;;;21.70;90.60;21.80;99538.00;;;;310900;23;83350;-82
2023/07/22 00:21:40;;;;;;;;;;;21.70;90.50;21.90;99541.00;;;;342078;28;89548;-86
2023/07/22 00:21:52;;;;;;;;;;;21.70;90.60;21.90;99533.00;;;;340575;28;82582;-87
2023/07/22 00:22:07;;;;;;;;;;;21.70;90.60;21.80;99532.00;;;;340101;28;92532;-87
2023/07/22 00:22:20;;;;;;;;;;;21.70;90.50;21.80;99527.00;;;;340544;28;83431;-87
2023/07/22 00:22:31;;;;;;;;;;;21.70;90.50;21.80;99532.00;;;;338971;28;89210;-87
2023/07/22 00:22:43;;;;;;;;;;;21.70;90.50;21.80;99532.00;;;;340570;28;83522;-87
2023/07/22 00:22:55;;;;;;;;;;;21.70;90.50;21.80;99527.00;;;;337409;28;89491;-87
2023/07/22 00:23:07;;;;;;;;;;;21.70;90.50;21.80;99524.00;;;;339099;28;83536;-87
2023/07/22 00:23:19;;;;;;;;;;;21.70;90.40;21.90;99526.00;;;;339022;28;89491;-87
2023/07/22 00:23:31;;;;;;;;;;;21.70;90.40;21.90;99524.00;;;;342163;28;83278;-86
2023/07/22 00:23:43;;;;;;;;;;;21.70;90.50;21.90;99523.00;;;;338909;28;91714;-87
2023/07/22 00:23:55;;;;;;;;;;;21.70;90.50;21.70;99531.00;;;;337976;28;83402;-87
2023/07/22 00:24:06;;;;;;;;;;;21.70;90.60;21.70;99526.00;;;;337582;28;92365;-87
2023/07/22 00:24:18;;;;;;;;;;;21.60;90.60;21.80;99526.00;;;;337992;28;82419;-87
2023/07/22 00:24:31;;;;;;;;;;;21.70;90.60;21.80;99524.00;;;;338997;28;88203;-87
2023/07/22 00:24:43;;;;;;;;;;;21.70;90.60;21.80;99522.00;;;;338025;28;83505;-87
2023/07/22 00:24:55;;;;;;;;;;;21.70;90.50;21.80;99527.00;;;;336262;28;91953;-87
2023/07/22 00:25:12;;;;;;;;;;;21.70;90.40;21.80;99518.00;;;;338007;28;83465;-87
2023/07/22 00:25:23;;;;;;;;;;;21.70;90.30;21.70;99528.00;;;;340468;28;91565;-87
2023/07/22 00:25:35;;;;;;;;;;;21.70;90.30;21.70;99530.00;;;;340593;28;82579;-87
2023/07/22 00:25:47;;;;;;;;;;;21.70;90.30;21.70;99526.00;;;;337495;28;89838;-87
2023/07/22 00:25:59;;;;;;;;;;;21.70;90.30;21.80;99516.00;;;;339293;28;82600;-87
2023/07/22 00:26:11;;;;;;;;;;;21.60;90.30;21.70;99525.00;;;;340194;28;91357;-87
2023/07/22 00:26:23;;;;;;;;;;;21.70;90.30;21.80;99521.00;;;;340087;28;84085;-87
2023/07/22 00:26:35;;;;;;;;;;;21.70;90.30;21.70;99523.00;;;;339627;28;91408;-86
2023/07/22 00:26:46;;;;;;;;;;;21.60;90.30;21.70;99522.00;;;;340847;28;83320;-87
2023/07/22 00:26:58;;;;;;;;;;;21.60;90.30;21.80;99520.00;;;;340166;28;91641;-87
2023/07/22 00:27:10;;;;;;;;;;;21.60;90.50;21.80;99519.00;;;;339383;28;82537;-87
2023/07/22 00:27:22;;;;;;;;;;;21.70;90.30;21.70;99523.00;;;;338362;28;90126;-86
2023/07/22 00:27:33;;;;;;;;;;;21.60;90.20;21.60;99526.00;;;;338337;28;83446;-87
2023/07/22 00:27:45;;;;;;;;;;;21.60;90.30;21.70;99514.00;;;;338886;28;90283;-87
2023/07/22 00:27:57;;;;;;;;;;;21.60;90.30;21.70;99519.00;;;;339268;28;83472;-87
2023/07/22 00:28:09;;;;;;;;;;;21.60;90.30;21.70;99518.00;;;;337518;28;92230;-87
2023/07/22 00:28:21;;;;;;;;;;;21.60;90.40;21.70;99519.00;;;;340664;28;83423;-87
2023/07/22 00:28:33;;;;;;;;;;;21.60;90.40;21.70;99521.00;;;;339052;28;90139;-87
2023/07/22 00:28:45;;;;;;;;;;;21.60;90.40;21.80;99517.00;;;;338058;28;83507;-87
2023/07/22 00:28:57;;;;;;;;;;;21.60;90.40;21.80;99515.00;;;;341343;28;90899;-87
2023/07/22 00:29:08;;;;;;;;;;;21.60;90.40;21.70;99520.00;;;;343015;28;84008;-87
2023/07/22 00:29:20;;;;;;;;;;;21.60;90.60;21.70;99522.00;;;;338402;28;90362;-86
2023/07/22 00:29:32;;;;;;;;;;;21.60;90.50;21.70;99513.00;;;;340653;28;83468;-86
2023/07/22 00:29:44;;;;;;;;;;;21.60;90.50;21.80;99522.00;;;;341368;28;90199;-87
2023/07/22 00:29:56;;;;;;;;;;;21.60;90.40;21.80;99517.00;;;;339416;28;83285;-87
2023/07/22 00:30:08;;;;;;;;;;;21.60;90.40;21.80;99520.00;;;;340109;28;92870;-86
2023/07/22 00:30:20;;;;;;;;;;;21.60;90.30;21.80;99522.00;;;;339313;28;83322;-86
2023/07/22 00:30:32;;;;;;;;;;;21.60;90.40;21.70;99511.00;;;;338999;28;91446;-87
2023/07/22 00:30:43;;;;;;;;;;;21.60;90.40;21.50;99513.00;;;;338020;28;83453;-87
2023/07/22 00:30:57;;;;;;;;;;;21.60;90.40;21.60;99520.00;;;;338887;28;91539;-87
2023/07/22 00:31:09;;;;;;;;;;;21.60;90.40;21.60;99512.00;;;;340652;28;83384;-87
2023/07/22 00:31:21;;;;;;;;;;;21.60;90.40;21.70;99524.00;;;;337404;28;90768;-87
2023/07/22 00:31:33;;;;;;;;;;;21.60;90.40;21.60;99511.00;;;;340320;28;83372;-87
2023/07/22 00:31:45;;;;;;;;;;;21.60;90.40;21.70;99521.00;;;;338839;28;91631;-87
2023/07/22 00:31:57;;;;;;;;;;;21.60;90.40;21.70;99516.00;;;;339197;28;83473;-85
2023/07/22 00:32:09;;;;;;;;;;;21.60;90.40;21.70;99516.00;;;;337648;28;88869;-86
2023/07/22 00:32:20;;;;;;;;;;;21.60;90.40;21.80;99517.00;;;;340378;28;83510;-87
2023/07/22 00:32:32;;;;;;;;;;;21.60;90.50;21.70;99519.00;;;;341654;28;92150;-87
2023/07/22 00:32:44;;;;;;;;;;;21.60;90.50;21.60;99514.00;;;;338074;28;82350;-86
2023/07/22 00:32:56;;;;;;;;;;;21.50;90.40;21.70;99523.00;;;;340142;28;91630;-87
2023/07/22 00:33:08;;;;;;;;;;;21.60;90.40;21.70;99521.00;;;;341956;28;83430;-87
2023/07/22 00:33:20;;;;;;;;;;;21.50;90.40;21.70;99520.00;;;;338898;28;91805;-88
2023/07/22 00:33:32;;;;;;;;;;;21.60;90.50;21.80;99520.00;;;;339660;28;83537;-88
2023/07/22 00:33:44;;;;;;;;;;;21.60;90.40;21.70;99516.00;;;;340288;28;89096;-89
2023/07/22 00:33:56;;;;;;;;;;;21.60;90.40;21.60;99513.00;;;;339258;28;83514;-89
2023/07/22 00:34:08;;;;;;;;;;;21.60;90.50;21.50;99514.00;;;;340156;28;92843;-89
2023/07/22 00:34:20;;;;;;;;;;;21.60;90.50;21.50;99518.00;;;;340638;28;83279;-89
2023/07/22 00:34:32;;;;;;;;;;;21.60;90.50;21.60;99514.00;;;;341540;28;90324;-89
2023/07/22 00:34:44;;;;;;;;;;;21.60;90.50;21.70;99514.00;;;;340682;28;83475;-89
2023/07/22 00:34:55;;;;;;;;;;;21.60;90.50;21.60;99511.00;;;;340242;28;92235;-89
2023/07/22 00:35:08;;;;;;;;;;;21.60;90.50;21.60;99518.00;;;;337938;28;83513;-89
2023/07/22 00:35:21;;;;;;;;;;;21.50;90.40;21.70;99515.00;;;;338927;28;91449;-88
2023/07/22 00:35:33;;;;;;;;;;;21.60;90.50;21.70;99523.00;;;;339035;28;83537;-89
2023/07/22 00:35:50;;;;;;;;;;;21.60;90.50;21.70;99519.00;;;;337509;28;91435;-88
2023/07/22 00:36:03;;;;;;;;;;;21.60;90.50;21.50;99508.00;;;;339299;28;82388;-89
2023/07/22 00:36:14;;;;;;;;;;;21.60;90.60;21.60;99514.00;;;;340117;28;93373;-88
2023/07/22 00:36:26;;;;;;;;;;;21.50;90.50;21.60;99516.00;;;;340928;28;82537;-88
2023/07/22 00:36:38;;;;;;;;;;;21.50;90.50;21.70;99515.00;;;;340246;28;91286;-88
2023/07/22 00:36:50;;;;;;;;;;;21.50;90.50;21.60;99518.00;;;;340653;28;83418;-89
2023/07/22 00:37:02;;;;;;;;;;;21.50;90.50;21.50;99523.00;;;;340199;28;91756;-89
2023/07/22 00:37:14;;;;;;;;;;;21.50;90.60;21.50;99509.00;;;;339295;28;83436;-88
2023/07/22 00:37:26;;;;;;;;;;;21.50;90.60;21.50;99521.00;;;;340038;28;90472;-88
2023/07/22 00:37:38;;;;;;;;;;;21.50;90.70;21.50;99511.00;;;;340523;28;83527;-89
2023/07/22 00:37:49;;;;;;;;;;;21.50;90.70;21.50;99513.00;;;;338868;28;87344;-88
2023/07/22 00:38:01;;;;;;;;;;;21.50;90.60;21.50;99513.00;;;;339407;28;83434;-88
2023/07/22 00:38:13;;;;;;;;;;;21.50;90.70;21.50;99518.00;;;;338883;28;89327;-88
2023/07/22 00:38:25;;;;;;;;;;;21.50;90.60;21.40;99512.00;;;;337993;28;83400;-88
2023/07/22 00:38:37;;;;;;;;;;;21.50;90.70;21.50;99510.00;;;;338821;28;89937;-88
2023/07/22 00:38:49;;;;;;;;;;;21.40;90.70;21.50;99509.00;;;;340593;28;82598;-88
2023/07/22 00:39:01;;;;;;;;;;;21.40;90.70;21.40;99517.00;;;;340157;28;90168;-88
2023/07/22 00:39:15;;;;;;;;;;;21.40;90.70;21.50;99514.00;;;;343286;28;83522;-88
2023/07/22 00:39:27;;;;;;;;;;;21.40;90.60;21.50;99518.00;;;;340372;28;88091;-89
2023/07/22 00:39:39;;;;;;;;;;;21.40;90.70;21.50;99512.00;;;;340639;28;82493;-89
2023/07/22 00:39:51;;;;;;;;;;;21.40;90.70;21.40;99510.00;;;;339024;28;91395;-89
2023/07/22 00:40:11;;;;;;;;;;;21.40;90.80;21.50;99514.00;;;;339271;28;83468;-89
2023/07/22 00:40:24;;;;;;;;;;;21.40;90.80;21.50;99512.00;;;;336041;28;93451;-89
2023/07/22 00:40:35;;;;;;;;;;;21.40;90.80;21.50;99508.00;;;;340566;28;83320;-89
2023/07/22 00:40:47;;;;;;;;;;;21.40;90.70;21.50;99512.00;;;;341643;28;89178;-88
2023/07/22 00:40:59;;;;;;;;;;;21.40;90.70;21.50;99511.00;;;;340684;28;82575;-88
2023/07/22 00:41:11;;;;;;;;;;;21.40;90.80;21.40;99502.00;;;;338936;28;91233;-88
2023/07/22 00:41:23;;;;;;;;;;;21.40;90.80;21.40;99503.00;;;;339488;28;83495;-88
2023/07/22 00:41:34;;;;;;;;;;;21.40;90.70;21.50;99508.00;;;;340907;28;87650;-88
2023/07/22 00:41:46;;;;;;;;;;;21.40;90.70;21.50;99520.00;;;;340557;28;83456;-88
2023/07/22 00:41:58;;;;;;;;;;;21.40;90.80;21.50;99512.00;;;;338831;28;90434;-89
2023/07/22 00:42:10;;;;;;;;;;;21.40;90.80;21.40;99509.00;;;;340621;28;83499;-89
2023/07/22 00:42:21;;;;;;;;;;;21.40;90.80;21.40;99520.00;;;;338776;28;91359;-88
2023/07/22 00:42:33;;;;;;;;;;;21.40;90.80;21.40;99516.00;;;;338064;28;83386;-88
2023/07/22 00:42:45;;;;;;;;;;;21.40;90.80;21.40;99511.00;;;;337553;28;91118;-89
2023/07/22 00:42:57;;;;;;;;;;;21.40;90.70;21.40;99514.00;;;;339329;28;82491;-88
2023/07/22 00:43:09;;;;;;;;;;;21.30;90.70;21.50;99523.00;;;;338909;28;90804;-88
2023/07/22 00:43:21;;;;;;;;;;;21.30;90.70;21.50;99515.00;;;;340661;28;82534;-88
2023/07/22 00:43:32;;;;;;;;;;;21.30;90.70;21.40;99513.00;;;;338880;28;88756;-89
2023/07/22 00:43:44;;;;;;;;;;;21.30;90.80;21.50;99514.00;;;;338729;28;83528;-88
2023/07/22 00:43:56;;;;;;;;;;;21.30;90.80;21.40;99521.00;;;;341641;28;88799;-88
2023/07/22 00:44:08;;;;;;;;;;;21.40;90.80;21.30;99518.00;;;;339428;28;82452;-89
2023/07/22 00:44:20;;;;;;;;;;;21.30;90.80;21.30;99514.00;;;;341434;28;89486;-88
2023/07/22 00:44:32;;;;;;;;;;;21.30;90.80;21.30;99518.00;;;;340562;28;83416;-89
2023/07/22 00:44:44;;;;;;;;;;;21.30;90.80;21.30;99518.00;;;;336352;28;89991;-89
2023/07/22 00:44:56;;;;;;;;;;;21.30;90.70;21.40;99517.00;;;;337919;28;83587;-88
2023/07/22 00:45:08;;;;;;;;;;;21.30;91.00;21.50;99520.00;;;;340284;28;88713;-88
2023/07/22 00:45:19;;;;;;;;;;;21.30;90.80;21.40;99516.00;;;;340667;28;83438;-89
2023/07/22 00:45:31;;;;;;;;;;;21.30;90.80;21.40;99515.00;;;;337663;28;87673;-89
2023/07/22 00:45:44;;;;;;;;;;;21.30;90.80;21.50;99517.00;;;;339319;28;82524;-89
2023/07/22 00:45:56;;;;;;;;;;;21.30;90.80;21.50;99519.00;;;;341556;28;91478;-88
2023/07/22 00:46:07;;;;;;;;;;;21.30;90.70;21.50;99520.00;;;;342016;28;82511;-89
2023/07/22 00:46:19;;;;;;;;;;;21.30;90.80;21.50;99521.00;;;;338659;28;92719;-89
2023/07/22 00:46:31;;;;;;;;;;;21.30;90.80;21.50;99525.00;;;;340481;28;82626;-89
2023/07/22 00:46:44;;;;;;;;;;;21.30;90.80;21.50;99516.00;;;;338946;28;90531;-88
2023/07/22 00:46:56;;;;;;;;;;;21.30;90.80;21.50;99521.00;;;;343340;28;83407;-89
2023/07/22 00:47:08;;;;;;;;;;;21.30;90.80;21.40;99518.00;;;;338938;28;91525;-89
2023/07/22 00:47:20;;;;;;;;;;;21.30;90.90;21.40;99518.00;;;;340701;28;83452;-89
2023/07/22 00:47:33;;;;;;;;;;;21.30;90.90;21.40;99524.00;;;;338937;28;91543;-89
2023/07/22 00:47:44;;;;;;;;;;;21.30;90.80;21.40;99522.00;;;;339259;28;83517;-89
2023/07/22 00:47:56;;;;;;;;;;;21.30;90.90;21.40;99524.00;;;;339064;28;88054;-88
2023/07/22 00:48:08;;;;;;;;;;;21.30;90.90;21.30;99523.00;;;;341998;28;83377;-89
2023/07/22 00:48:20;;;;;;;;;;;21.30;91.00;21.30;99522.00;;;;340094;28;91554;-89
2023/07/22 00:48:32;;;;;;;;;;;21.30;91.10;21.30;99519.00;;;;339421;28;82521;-88
2023/07/22 00:48:44;;;;;;;;;;;21.30;91.20;21.30;99525.00;;;;339683;28;90339;-89
2023/07/22 00:48:56;;;;;;;;;;;21.30;91.20;21.40;99523.00;;;;340850;28;83498;-89
2023/07/22 00:49:09;;;;;;;;;;;21.30;91.10;21.40;99521.00;;;;339055;28;87745;-89
2023/07/22 00:49:20;;;;;;;;;;;21.30;91.10;21.40;99527.00;;;;339401;28;82476;-89
2023/07/22 00:49:32;;;;;;;;;;;21.30;91.30;21.40;99521.00;;;;340284;28;91354;-89
2023/07/22 00:49:44;;;;;;;;;;;21.30;91.00;21.30;99527.00;;;;339237;28;83496;-89
2023/07/22 00:49:56;;;;;;;;;;;21.30;91.10;21.30;99516.00;;;;341626;28;90249;-88
2023/07/22 00:50:08;;;;;;;;;;;21.30;91.10;21.30;99521.00;;;;340704;28;83529;-88
2023/07/22 00:50:20;;;;;;;;;;;21.30;91.10;21.30;99524.00;;;;340092;28;92474;-89
2023/07/22 00:50:31;;;;;;;;;;;21.30;91.20;21.50;99531.00;;;;339298;28;82543;-89
2023/07/22 00:50:43;;;;;;;;;;;21.20;91.10;21.50;99530.00;;;;341587;28;90225;-89
2023/07/22 00:50:55;;;;;;;;;;;21.30;91.10;21.40;99524.00;;;;339415;28;82560;-89
2023/07/22 00:51:07;;;;;;;;;;;21.30;91.10;21.40;99520.00;;;;340158;28;91874;-87
2023/07/22 00:51:20;;;;;;;;;;;21.30;91.10;21.50;99521.00;;;;339204;28;83481;-87
2023/07/22 00:51:32;;;;;;;;;;;21.30;91.10;21.50;99525.00;;;;338863;28;91260;-87
2023/07/22 00:51:44;;;;;;;;;;;21.30;91.10;21.40;99527.00;;;;337974;28;83357;-86
2023/07/22 00:51:58;;;;;;;;;;;21.30;91.10;21.30;99530.00;;;;338889;28;91061;-87
2023/07/22 00:52:09;;;;;;;;;;;21.30;91.10;21.30;99525.00;;;;342067;28;83350;-87
2023/07/22 00:52:21;;;;;;;;;;;21.30;91.10;21.20;99530.00;;;;338711;28;92752;-87
2023/07/22 00:52:36;;;;;;;;;;;21.30;91.20;21.20;99524.00;;;;339370;28;83414;-86
2023/07/22 00:52:48;;;;;;;;;;;21.30;91.20;21.10;99534.00;;;;340190;28;92269;-87
2023/07/22 00:53:00;;;;;;;;;;;21.20;91.20;21.20;99536.00;;;;339278;28;83535;-87
2023/07/22 00:53:12;;;;;;;;;;;21.20;91.20;21.30;99528.00;;;;338949;28;90605;-86
2023/07/22 00:53:23;;;;;;;;;;;21.20;91.20;21.20;99531.00;;;;340678;28;83537;-87
2023/07/22 00:53:35;;;;;;;;;;;21.20;91.30;21.20;99533.00;;;;340308;28;91442;-87
2023/07/22 00:53:47;;;;;;;;;;;21.20;91.20;21.30;99528.00;;;;340641;28;82654;-87
2023/07/22 00:53:59;;;;;;;;;;;21.20;91.40;21.30;99519.00;;;;341584;28;89268;-87
2023/07/22 00:54:11;;;;;;;;;;;21.20;91.20;21.20;99529.00;;;;342021;28;83366;-87
2023/07/22 00:54:23;;;;;;;;;;;21.20;91.20;21.20;99532.00;;;;341557;28;88893;-87
2023/07/22 00:54:34;;;;;;;;;;;21.20;91.20;21.30;99532.00;;;;342048;28;83428;-87
2023/07/22 00:54:46;;;;;;;;;;;21.20;91.30;21.30;99531.00;;;;338943;28;91149;-87
2023/07/22 00:54:58;;;;;;;;;;;21.20;91.10;21.30;99528.00;;;;340758;28;82441;-87
2023/07/22 00:55:10;;;;;;;;;;;21.20;91.10;21.30;99530.00;;;;341179;28;90063;-86
2023/07/22 00:55:21;;;;;;;;;;;21.20;91.10;21.30;99529.00;;;;339325;28;83467;-86
2023/07/22 00:55:33;;;;;;;;;;;21.20;91.10;21.30;99525.00;;;;336870;28;90382;-86
2023/07/22 00:55:45;;;;;;;;;;;21.20;91.10;21.30;99527.00;;;;340505;28;82450;-87
2023/07/22 00:55:57;;;;;;;;;;;21.20;91.10;21.20;99523.00;;;;340213;28;90236;-87
2023/07/22 00:56:09;;;;;;;;;;;21.20;91.10;21.20;99521.00;;;;339253;28;83422;-87
2023/07/22 00:56:21;;;;;;;;;;;21.20;91.20;21.10;99535.00;;;;341447;28;92865;-86
2023/07/22 00:56:33;;;;;;;;;;;21.20;91.20;21.00;99531.00;;;;338782;28;83495;-87
2023/07/22 00:56:45;;;;;;;;;;;21.20;91.20;21.10;99527.00;;;;338930;28;91298;-87
2023/07/22 00:56:57;;;;;;;;;;;21.20;91.20;21.20;99533.00;;;;340616;28;83420;-87
2023/07/22 00:57:09;;;;;;;;;;;21.10;91.20;21.30;99530.00;;;;337483;28;91427;-86
2023/07/22 00:57:21;;;;;;;;;;;21.20;91.20;21.30;99527.00;;;;339341;28;83408;-87
2023/07/22 00:57:33;;;;;;;;;;;21.20;91.30;21.20;99529.00;;;;341584;28;91566;-87
2023/07/22 00:57:45;;;;;;;;;;;21.20;91.40;21.20;99526.00;;;;339254;28;82729;-87
2023/07/22 00:57:57;;;;;;;;;;;21.20;91.40;21.20;99533.00;;;;340243;28;88768;-87
2023/07/22 00:58:08;;;;;;;;;;;21.20;91.40;21.30;99529.00;;;;340594;28;83376;-87
2023/07/22 00:58:20;;;;;;;;;;;21.20;91.30;21.30;99526.00;;;;341449;28;92232;-86
2023/07/22 00:58:33;;;;;;;;;;;21.10;91.20;21.30;99535.00;;;;339387;28;82430;-87
2023/07/22 00:58:45;;;;;;;;;;;21.10;91.20;21.30;99526.00;;;;340260;28;88651;-87
2023/07/22 00:58:56;;;;;;;;;;;21.20;91.30;21.30;99529.00;;;;340626;28;83474;-87
2023/07/22 00:59:08;;;;;;;;;;;21.20;91.30;21.30;99527.00;;;;339318;28;90275;-87
2023/07/22 00:59:20;;;;;;;;;;;21.20;91.30;21.30;99535.00;;;;340455;28;83563;-87
2023/07/22 00:59:32;;;;;;;;;;;21.20;91.30;21.20;99534.00;;;;338919;28;90775;-87
2023/07/22 00:59:44;;;;;;;;;;;21.10;91.30;21.20;99535.00;;;;339251;28;83493;-87
2023/07/22 00:59:56;;;;;;;;;;;21.10;91.30;21.30;99536.00;;;;341656;28;88791;-87
2023/07/22 01:00:11;;;;;;;;;;;21.10;91.20;21.30;99536.00;;;;342040;28;83351;-87
2023/07/22 01:00:23;;;;;;;;;;;21.10;91.20;21.30;99533.00;;;;338746;28;91559;-87
2023/07/22 01:00:35;;;;;;;;;;;21.10;91.20;21.30;99526.00;;;;340628;28;83462;-87
2023/07/22 01:00:48;;;;;;;;;;;21.10;91.20;21.30;99531.00;;;;340231;28;90126;-87
2023/07/22 01:01:00;;;;;;;;;;;21.20;91.30;21.30;99530.00;;;;337925;28;83348;-87
2023/07/22 01:01:12;;;;;;;;;;;21.20;91.30;21.30;99536.00;;;;340224;28;91260;-87
2023/07/22 01:01:23;;;;;;;;;;;21.20;91.20;21.30;99537.00;;;;338717;28;82508;-86
2023/07/22 01:01:35;;;;;;;;;;;21.20;91.20;21.30;99537.00;;;;340912;28;91407;-87
2023/07/22 01:01:47;;;;;;;;;;;21.20;91.20;21.30;99539.00;;;;340521;28;83327;-87
2023/07/22 01:01:59;;;;;;;;;;;21.20;91.20;21.30;99532.00;;;;340152;28;91255;-87
2023/07/22 01:02:11;;;;;;;;;;;21.20;91.20;21.20;99539.00;;;;341989;28;82546;-87